Terminal Aerodrome Forecast
Issued by NWS Louisville, KY

Home | Current Version | Previous Version | Text Only | Print | Product List | Glossary On
Versions: 1 2 3 4 5 6 7 8 9 10 11 12 13 14 15 16 17
250
FTUS43 KLMK 191127
TAFLEX
TAF
KLEX 191127Z 1912/2012 15005KT P6SM VCSH SCT040 BKN090
     FM191700 19007KT P6SM SCT040 BKN250
     FM200000 19003KT P6SM SCT250=

USA.gov is the U.S. government's official web portal to all federal, state and local government web resources and services.